Time;durP1;ratioP1;P1;durP2;ratioP2;P2;SDS_P1;SDS_P2;PMS_P1;PMS_P2;Temp;Humidity;BMP_temperature;BMP_pressure;BME280_temperature;BME280_humidity;BME280_pressure;Samples;Min_cycle;Max_cycle;Signal;HPM_P1;HPM_P2
2022/12/06 00:04:41;;;;;;;42.20;25.30;;;1.30;99.90;;;;;;10450172;28;20219;-82
2022/12/06 00:10:03;;;;;;;46.13;26.90;;;1.30;99.90;;;;;;10435975;28;20200;-84
2022/12/06 00:15:25;;;;;;;39.80;22.47;;;1.30;99.90;;;;;;10437880;28;20202;-84
2022/12/06 00:20:46;;;;;;;38.00;21.07;;;1.30;99.90;;;;;;10470584;28;20196;-85
2022/12/06 00:26:08;;;;;;;35.70;20.67;;;1.30;99.90;;;;;;10466875;28;20257;-83
2022/12/06 00:31:31;;;;;;;35.90;19.30;;;1.20;99.90;;;;;;10450158;28;20195;-82
2022/12/06 00:36:52;;;;;;;38.17;20.57;;;1.30;99.90;;;;;;10449662;28;20386;-83
2022/12/06 00:42:13;;;;;;;43.97;24.00;;;1.30;99.90;;;;;;10435285;28;20202;-84
2022/12/06 00:47:34;;;;;;;40.83;22.37;;;1.30;99.90;;;;;;10480363;28;20210;-84
2022/12/06 00:52:56;;;;;;;43.37;22.70;;;1.30;99.90;;;;;;10485091;28;20193;-83
2022/12/06 00:58:17;;;;;;;42.20;23.40;;;1.40;99.90;;;;;;10475791;28;20199;-84
2022/12/06 01:03:39;;;;;;;38.73;22.40;;;1.40;99.90;;;;;;10442682;28;20502;-83
2022/12/06 01:09:04;;;;;;;41.50;23.00;;;1.40;99.90;;;;;;10448294;28;20306;-83
2022/12/06 01:14:25;;;;;;;48.27;23.47;;;1.40;99.90;;;;;;10465000;28;20405;-84
2022/12/06 01:19:49;;;;;;;44.43;24.60;;;1.40;99.90;;;;;;10464886;28;20245;-84
2022/12/06 01:25:10;;;;;;;40.03;22.90;;;1.40;99.90;;;;;;10433574;28;20235;-83
2022/12/06 01:30:31;;;;;;;46.70;25.63;;;1.40;99.90;;;;;;10422892;28;20196;-83
2022/12/06 01:35:52;;;;;;;47.60;25.47;;;1.40;99.90;;;;;;10422747;28;20203;-83
2022/12/06 01:41:14;;;;;;;39.43;22.73;;;1.40;99.90;;;;;;10420391;28;20192;-83
2022/12/06 01:46:40;;;;;;;43.63;22.63;;;1.50;99.90;;;;;;10445905;28;20425;-83
2022/12/06 01:52:08;;;;;;;43.43;24.27;;;1.50;99.90;;;;;;10422939;28;20192;-83
2022/12/06 01:57:30;;;;;;;45.03;23.87;;;1.50;99.90;;;;;;10419755;28;20204;-83
2022/12/06 02:02:53;;;;;;;38.23;22.83;;;1.50;99.90;;;;;;10432450;28;20278;-83
2022/12/06 02:08:16;;;;;;;38.93;21.07;;;1.50;99.90;;;;;;10432980;28;20228;-87
2022/12/06 02:13:38;;;;;;;39.77;21.80;;;1.50;99.90;;;;;;10447103;28;20195;-83
2022/12/06 02:19:03;;;;;;;37.67;20.77;;;1.50;99.90;;;;;;10460868;28;20321;-82
2022/12/06 02:24:30;;;;;;;42.87;23.70;;;1.50;99.90;;;;;;10473716;28;20227;-83
2022/12/06 02:30:10;;;;;;;41.27;22.80;;;1.50;99.90;;;;;;10447950;28;20423;-83
2022/12/06 02:35:34;;;;;;;45.13;25.47;;;1.50;99.90;;;;;;10441003;28;20222;-83
2022/12/06 02:41:00;;;;;;;40.23;21.93;;;1.50;99.90;;;;;;10454392;28;20419;-83
2022/12/06 02:46:24;;;;;;;37.40;21.13;;;1.50;99.90;;;;;;10440370;28;20238;-84
2022/12/06 02:51:46;;;;;;;39.60;22.10;;;1.50;99.90;;;;;;10443279;28;20201;-83
2022/12/06 02:57:07;;;;;;;44.23;24.00;;;1.40;99.90;;;;;;10424413;28;20267;-83
2022/12/06 03:02:31;;;;;;;44.83;23.80;;;1.40;99.90;;;;;;10458203;28;20195;-84
2022/12/06 03:07:53;;;;;;;51.00;24.83;;;1.40;99.90;;;;;;10460820;28;20237;-84
2022/12/06 03:13:31;;;;;;;47.60;24.47;;;1.50;99.90;;;;;;10480247;28;20215;-83
2022/12/06 03:19:03;;;;;;;46.33;23.27;;;1.50;99.90;;;;;;10441055;28;20279;-84
2022/12/06 03:24:28;;;;;;;41.40;22.30;;;1.60;99.90;;;;;;10452039;28;20307;-84
2022/12/06 03:29:54;;;;;;;40.57;21.17;;;1.60;99.90;;;;;;10451554;28;20227;-84
2022/12/06 03:35:24;;;;;;;41.37;24.50;;;1.60;99.90;;;;;;10451632;28;20218;-84
2022/12/06 03:40:49;;;;;;;39.50;22.37;;;1.60;99.90;;;;;;10451482;28;20261;-84
2022/12/06 03:46:34;;;;;;;39.93;21.67;;;1.60;99.90;;;;;;10437207;28;20251;-85
2022/12/06 03:51:55;;;;;;;44.33;23.47;;;1.60;99.90;;;;;;10426859;28;20206;-86
2022/12/06 03:57:16;;;;;;;44.33;23.47;;;1.60;99.90;;;;;;10426327;28;20261;-84
2022/12/06 04:02:37;;;;;;;40.73;22.67;;;1.60;99.90;;;;;;10464448;28;20206;-85
2022/12/06 04:07:59;;;;;;;48.47;26.87;;;1.50;99.90;;;;;;10453482;28;20223;-82
2022/12/06 04:13:20;;;;;;;47.23;27.10;;;1.50;99.90;;;;;;10436989;28;20197;-83
2022/12/06 04:18:41;;;;;;;41.60;22.10;;;1.50;99.90;;;;;;10462853;28;20497;-85
2022/12/06 04:24:03;;;;;;;44.37;25.53;;;1.50;99.90;;;;;;10491018;28;20231;-84
2022/12/06 04:40:46;;;;;;;42.97;24.33;;;1.70;99.90;;;;;;10463398;28;20196;-83
2022/12/06 04:46:14;;;;;;;40.17;22.50;;;1.70;99.90;;;;;;10449190;28;20218;-84
2022/12/06 04:51:36;;;;;;;39.80;22.83;;;1.70;99.90;;;;;;10411815;28;20188;-84
2022/12/06 04:56:57;;;;;;;41.97;23.47;;;1.70;99.90;;;;;;10393948;28;20392;-85
2022/12/06 05:02:18;;;;;;;39.67;22.17;;;1.70;99.90;;;;;;10420214;28;20278;-84
2022/12/06 05:07:39;;;;;;;39.20;22.37;;;1.70;99.90;;;;;;10457204;28;20223;-85
2022/12/06 05:13:01;;;;;;;44.60;22.60;;;1.70;99.90;;;;;;10450765;28;20528;-84
2022/12/06 05:18:24;;;;;;;45.30;25.53;;;1.70;99.90;;;;;;10450339;28;20211;-83
2022/12/06 05:23:45;;;;;;;44.33;24.07;;;1.80;99.90;;;;;;10451582;28;20231;-85
2022/12/06 05:29:06;;;;;;;47.63;26.97;;;1.80;99.90;;;;;;10447645;28;20595;-84
2022/12/06 05:34:28;;;;;;;70.97;38.73;;;1.80;99.90;;;;;;10448565;28;20279;-82
2022/12/06 05:39:49;;;;;;;68.43;38.43;;;1.70;99.90;;;;;;10447487;28;20203;-84
2022/12/06 05:45:11;;;;;;;64.50;35.97;;;1.70;99.90;;;;;;10434338;28;20220;-83
2022/12/06 05:50:32;;;;;;;79.53;40.03;;;1.70;99.90;;;;;;10423226;28;20588;-85
2022/12/06 05:55:54;;;;;;;59.60;33.60;;;1.70;99.90;;;;;;10424098;28;20272;-83
2022/12/06 06:01:15;;;;;;;62.03;34.10;;;1.70;99.90;;;;;;10424799;28;20207;-92
2022/12/06 06:06:36;;;;;;;57.53;31.73;;;1.60;99.90;;;;;;10436844;28;20408;-83
2022/12/06 06:11:58;;;;;;;73.00;42.90;;;1.60;99.90;;;;;;10455273;28;20198;-82
2022/12/06 06:17:19;;;;;;;72.90;42.03;;;1.60;99.90;;;;;;10469513;28;20200;-85
2022/12/06 06:22:41;;;;;;;63.73;35.00;;;1.70;99.90;;;;;;10454295;28;20262;-83
2022/12/06 06:28:02;;;;;;;66.03;35.40;;;1.80;99.90;;;;;;10453898;28;20231;-83
2022/12/06 06:33:24;;;;;;;63.40;36.33;;;1.80;99.90;;;;;;10453522;28;20201;-83
2022/12/06 06:38:45;;;;;;;73.60;38.50;;;1.80;99.90;;;;;;10440299;28;20207;-83
2022/12/06 06:44:06;;;;;;;54.90;29.60;;;1.80;99.90;;;;;;10440063;28;20198;-83
2022/12/06 06:49:27;;;;;;;53.03;30.03;;;1.80;99.90;;;;;;10452910;28;20234;-83
2022/12/06 06:54:49;;;;;;;76.00;40.20;;;1.80;99.90;;;;;;10453316;28;20225;-86
2022/12/06 07:00:11;;;;;;;97.03;45.27;;;1.80;99.90;;;;;;10453004;28;20226;-83
2022/12/06 07:05:32;;;;;;;91.63;46.40;;;1.90;99.90;;;;;;10428769;28;20189;-83
2022/12/06 07:10:53;;;;;;;71.30;36.87;;;1.90;99.90;;;;;;10428359;28;20249;-83
2022/12/06 07:16:15;;;;;;;60.07;33.73;;;1.80;99.90;;;;;;10428055;28;20411;-82
2022/12/06 07:21:38;;;;;;;60.87;33.77;;;1.90;99.90;;;;;;10438265;28;20296;-83
2022/12/06 07:26:59;;;;;;;54.93;29.97;;;1.80;99.90;;;;;;10428983;28;20452;-83
2022/12/06 07:32:20;;;;;;;53.13;29.77;;;1.80;99.90;;;;;;10442485;28;20672;-82
2022/12/06 07:37:42;;;;;;;68.13;33.57;;;1.90;99.90;;;;;;10413544;28;20258;-90
2022/12/06 07:48:43;;;;;;;69.40;34.30;;;1.90;99.90;;;;;;10444667;28;20535;-83
2022/12/06 07:54:04;;;;;;;74.73;38.63;;;2.00;99.90;;;;;;10426790;28;20192;-83
2022/12/06 07:59:26;;;;;;;75.80;38.40;;;2.00;99.90;;;;;;10413618;28;20226;-83
2022/12/06 08:04:48;;;;;;;64.60;35.50;;;2.00;99.90;;;;;;10449749;28;20189;-82
2022/12/06 08:10:09;;;;;;;70.90;36.57;;;2.00;99.90;;;;;;10433640;28;20255;-83
2022/12/06 08:15:31;;;;;;;78.87;39.17;;;2.00;99.90;;;;;;10412107;28;20207;-83
2022/12/06 08:20:52;;;;;;;93.50;42.50;;;2.00;99.90;;;;;;10385346;28;20449;-82
2022/12/06 08:26:15;;;;;;;110.40;53.87;;;2.00;99.90;;;;;;10417385;28;20243;-88
2022/12/06 08:31:36;;;;;;;116.03;52.93;;;2.00;99.90;;;;;;10420708;28;20192;-89
2022/12/06 08:37:00;;;;;;;98.93;48.43;;;2.00;99.90;;;;;;10421211;28;20207;-86
2022/12/06 08:42:23;;;;;;;137.00;69.83;;;2.00;99.90;;;;;;10420278;28;20284;-85
2022/12/06 08:47:44;;;;;;;100.90;53.30;;;2.00;99.90;;;;;;10432644;28;20784;-86
2022/12/06 08:53:06;;;;;;;84.23;45.33;;;2.00;99.90;;;;;;10413363;28;20560;-89
2022/12/06 08:58:27;;;;;;;76.80;40.83;;;2.00;99.90;;;;;;10421018;28;20207;-85
2022/12/06 09:03:48;;;;;;;70.67;39.37;;;2.00;99.90;;;;;;10435266;28;20199;-87
2022/12/06 09:09:12;;;;;;;73.40;39.90;;;2.00;99.90;;;;;;10406554;28;20565;-89
2022/12/06 09:14:33;;;;;;;71.00;36.87;;;2.00;99.90;;;;;;10419508;28;20409;-86
2022/12/06 09:19:54;;;;;;;67.77;35.67;;;2.00;99.90;;;;;;10402353;28;20200;-87
2022/12/06 09:25:17;;;;;;;79.77;37.87;;;2.00;99.90;;;;;;10444036;28;20243;-85
2022/12/06 09:30:38;;;;;;;85.80;44.10;;;2.00;99.90;;;;;;10454398;28;20240;-93
2022/12/06 09:36:05;;;;;;;78.17;40.07;;;1.90;99.90;;;;;;10455590;28;20277;-88
2022/12/06 09:41:50;;;;;;;72.00;38.20;;;1.90;99.90;;;;;;10463179;28;20202;-86
2022/12/06 09:47:17;;;;;;;70.90;37.10;;;2.00;99.90;;;;;;10456764;28;20222;-87
2022/12/06 09:53:08;;;;;;;87.60;43.00;;;2.10;99.90;;;;;;10424973;28;20194;-86
2022/12/06 09:59:03;;;;;;;84.33;39.97;;;2.10;99.90;;;;;;10422840;28;20207;-87
2022/12/06 10:04:46;;;;;;;74.10;34.93;;;2.20;99.90;;;;;;10433037;28;20219;-86
2022/12/06 10:10:26;;;;;;;73.30;34.63;;;2.20;99.90;;;;;;10409311;28;20295;-88
2022/12/06 10:16:08;;;;;;;75.27;38.47;;;2.20;99.90;;;;;;10425548;28;20200;-87
2022/12/06 10:21:52;;;;;;;65.87;34.10;;;2.20;99.90;;;;;;10450533;28;20227;-91
2022/12/06 10:27:25;;;;;;;62.80;32.90;;;2.20;99.90;;;;;;10437592;28;20236;-86
2022/12/06 10:32:51;;;;;;;67.40;36.70;;;2.30;99.90;;;;;;10433760;28;20201;-89
2022/12/06 10:38:18;;;;;;;82.20;41.73;;;2.30;99.90;;;;;;10364587;28;20262;-88
2022/12/06 10:43:42;;;;;;;79.73;42.07;;;2.30;99.90;;;;;;10377387;28;20201;-88
2022/12/06 10:49:40;;;;;;;69.70;36.63;;;2.30;99.90;;;;;;10380840;28;20297;-86
2022/12/06 10:55:11;;;;;;;70.57;35.87;;;2.30;99.90;;;;;;10447016;28;20243;-86
2022/12/06 11:00:45;;;;;;;67.80;35.33;;;2.40;99.90;;;;;;10413049;28;20263;-90
2022/12/06 11:06:23;;;;;;;57.43;32.10;;;2.50;99.90;;;;;;10443230;28;20196;-88
2022/12/06 11:11:46;;;;;;;70.47;37.47;;;2.50;99.90;;;;;;10427761;28;20514;-87
2022/12/06 11:17:20;;;;;;;68.87;35.83;;;2.60;99.90;;;;;;10430079;28;20246;-83
2022/12/06 11:22:52;;;;;;;58.87;32.33;;;2.60;99.90;;;;;;10421333;28;20208;-88
2022/12/06 11:28:40;;;;;;;62.33;31.37;;;2.50;99.90;;;;;;10394239;28;20237;-87
2022/12/06 11:34:03;;;;;;;65.83;32.23;;;2.60;99.90;;;;;;10385871;28;20262;-88
2022/12/06 11:39:25;;;;;;;71.83;36.40;;;2.50;99.90;;;;;;10371641;28;20228;-88
2022/12/06 11:45:00;;;;;;;82.27;39.33;;;2.50;99.90;;;;;;10383269;28;20328;-93
2022/12/06 11:50:23;;;;;;;78.77;37.67;;;2.40;99.90;;;;;;10381645;28;20248;-87
2022/12/06 11:55:48;;;;;;;66.63;33.97;;;2.50;99.90;;;;;;10383139;28;20265;-89
2022/12/06 12:01:13;;;;;;;65.93;33.17;;;2.50;99.90;;;;;;10383109;28;20232;-90
2022/12/06 12:06:36;;;;;;;69.93;38.07;;;2.40;99.90;;;;;;10394821;28;20189;-91
2022/12/06 12:12:04;;;;;;;76.47;39.73;;;2.40;99.90;;;;;;10384245;28;20201;-87
2022/12/06 12:17:30;;;;;;;80.00;40.53;;;2.50;99.90;;;;;;10382734;28;20200;-84
2022/12/06 12:23:15;;;;;;;80.23;40.27;;;2.50;99.90;;;;;;10384929;28;20200;-85
2022/12/06 12:28:37;;;;;;;80.60;42.20;;;2.50;99.90;;;;;;10475561;28;20212;-88
2022/12/06 12:34:34;;;;;;;77.17;38.30;;;2.60;99.90;;;;;;10445563;28;20192;-86
2022/12/06 12:39:56;;;;;;;103.10;53.70;;;2.60;99.90;;;;;;10446144;28;20386;-87
2022/12/06 12:45:19;;;;;;;81.00;39.47;;;2.60;99.90;;;;;;10445549;28;20254;-83
2022/12/06 12:50:51;;;;;;;82.70;38.40;;;2.60;99.90;;;;;;10403274;28;20584;-86
2022/12/06 12:56:16;;;;;;;78.13;37.13;;;2.60;99.90;;;;;;10406637;28;20220;-91
2022/12/06 13:01:41;;;;;;;95.97;44.03;;;2.60;99.90;;;;;;10403084;28;20208;-85
2022/12/06 13:07:16;;;;;;;90.13;43.97;;;2.60;99.90;;;;;;10389989;28;20222;-86
2022/12/06 13:12:47;;;;;;;74.93;38.43;;;2.60;99.90;;;;;;10389243;28;20224;-87
2022/12/06 13:18:36;;;;;;;65.67;35.47;;;2.60;99.90;;;;;;10418716;28;20208;-91
2022/12/06 13:24:09;;;;;;;64.50;32.37;;;2.60;99.90;;;;;;10421472;28;20271;-93
2022/12/06 13:29:34;;;;;;;59.03;29.10;;;2.60;99.90;;;;;;10413327;28;20464;-87
2022/12/06 13:35:01;;;;;;;52.73;26.67;;;2.60;99.90;;;;;;10390611;28;20232;-91
2022/12/06 13:40:31;;;;;;;51.03;26.47;;;2.70;99.90;;;;;;10405694;28;20218;-90
2022/12/06 13:46:08;;;;;;;49.83;27.23;;;2.70;99.90;;;;;;10406875;28;20428;-90
2022/12/06 13:51:36;;;;;;;47.93;26.27;;;2.60;99.90;;;;;;10404633;28;20319;-89
2022/12/06 13:57:01;;;;;;;46.33;23.83;;;2.60;99.90;;;;;;10402928;28;20216;-85
2022/12/06 14:02:44;;;;;;;56.97;30.13;;;2.60;99.90;;;;;;10417267;28;20204;-86
2022/12/06 14:08:10;;;;;;;47.83;26.10;;;2.60;99.90;;;;;;10421148;28;20247;-87
2022/12/06 14:13:31;;;;;;;54.60;27.93;;;2.50;99.90;;;;;;10401669;28;20193;-87
2022/12/06 14:18:52;;;;;;;51.73;27.57;;;2.50;99.90;;;;;;10417930;28;20521;-87
2022/12/06 14:24:40;;;;;;;49.13;25.23;;;2.50;99.90;;;;;;10435826;28;20308;-88
2022/12/06 14:30:21;;;;;;;62.23;31.60;;;2.40;99.90;;;;;;10414040;28;20230;-88
2022/12/06 14:35:52;;;;;;;75.30;38.27;;;2.40;99.90;;;;;;10411564;28;20741;-86
2022/12/06 14:47:00;;;;;;;60.03;31.90;;;2.40;99.90;;;;;;10427481;28;20200;-88
2022/12/06 14:52:25;;;;;;;65.13;31.63;;;2.40;99.90;;;;;;10439485;28;20437;-89
2022/12/06 14:57:50;;;;;;;61.77;30.43;;;2.40;99.90;;;;;;10388740;28;20192;-84
2022/12/06 15:03:14;;;;;;;54.57;29.67;;;2.40;99.90;;;;;;10421393;28;20502;-86
2022/12/06 15:08:37;;;;;;;57.83;28.53;;;2.40;99.90;;;;;;10444740;28;20254;-86
2022/12/06 15:14:24;;;;;;;40.60;22.83;;;2.40;99.90;;;;;;10419094;28;20192;-85
2022/12/06 15:19:48;;;;;;;50.50;27.10;;;2.40;99.90;;;;;;10401368;28;20200;-86
2022/12/06 15:25:12;;;;;;;48.37;26.50;;;2.40;99.90;;;;;;10419659;28;20306;-88
2022/12/06 15:30:34;;;;;;;65.60;32.40;;;2.30;99.90;;;;;;10441970;28;20240;-83
2022/12/06 15:35:57;;;;;;;61.40;31.33;;;2.30;99.90;;;;;;10415546;28;20192;-83
2022/12/06 15:41:25;;;;;;;60.70;30.93;;;2.30;99.90;;;;;;10427969;28;20196;-89
2022/12/06 15:46:48;;;;;;;48.80;26.90;;;2.30;99.90;;;;;;10454326;28;20187;-84
2022/12/06 15:52:18;;;;;;;53.23;30.17;;;2.30;99.90;;;;;;10434710;28;20514;-89
2022/12/06 15:57:39;;;;;;;51.23;28.60;;;2.30;99.90;;;;;;10414517;28;20200;-89
2022/12/06 16:03:01;;;;;;;55.33;28.47;;;2.30;99.90;;;;;;10410492;28;20200;-88
2022/12/06 16:08:23;;;;;;;50.53;27.00;;;2.20;99.90;;;;;;10428704;28;20506;-81
2022/12/06 16:13:44;;;;;;;56.83;27.73;;;2.30;99.90;;;;;;10407729;28;20212;-83
2022/12/06 16:19:06;;;;;;;52.57;27.97;;;2.30;99.90;;;;;;10424850;28;20395;-82
2022/12/06 16:24:27;;;;;;;50.20;26.80;;;2.30;99.90;;;;;;10416577;28;20461;-81
2022/12/06 16:29:48;;;;;;;41.00;22.23;;;2.30;99.90;;;;;;10425528;28;20235;-81
2022/12/06 16:35:09;;;;;;;55.47;28.80;;;2.30;99.90;;;;;;10422366;28;20276;-82
2022/12/06 16:40:32;;;;;;;49.63;29.20;;;2.30;99.90;;;;;;10430135;28;20436;-80
2022/12/06 16:45:56;;;;;;;48.47;26.63;;;2.30;99.90;;;;;;10448564;28;20259;-84
2022/12/06 16:51:17;;;;;;;55.10;27.73;;;2.30;99.90;;;;;;10423904;28;20259;-82
2022/12/06 16:56:39;;;;;;;61.20;28.77;;;2.30;99.90;;;;;;10406557;28;20193;-81
2022/12/06 17:02:01;;;;;;;60.17;29.30;;;2.30;99.90;;;;;;10407224;28;20196;-81
2022/12/06 17:07:24;;;;;;;58.60;30.00;;;2.30;99.90;;;;;;10424966;28;20271;-87
2022/12/06 17:12:47;;;;;;;74.17;38.87;;;2.40;99.90;;;;;;10406722;28;20211;-82
2022/12/06 17:18:08;;;;;;;57.97;30.90;;;2.30;99.90;;;;;;10406943;28;20222;-82
2022/12/06 17:23:29;;;;;;;71.90;38.37;;;2.30;99.90;;;;;;10416079;28;20415;-83
2022/12/06 17:28:50;;;;;;;92.07;50.43;;;2.40;99.90;;;;;;10423085;28;20529;-89
2022/12/06 17:34:18;;;;;;;81.40;43.40;;;2.30;99.90;;;;;;10433667;28;20263;-87
2022/12/06 17:39:48;;;;;;;74.10;41.83;;;2.30;99.90;;;;;;10413703;28;20207;-89
2022/12/06 17:45:09;;;;;;;93.03;48.33;;;2.30;99.90;;;;;;10422568;28;20557;-85
2022/12/06 17:50:30;;;;;;;86.10;45.77;;;2.30;99.90;;;;;;10405968;28;20344;-84
2022/12/06 17:55:51;;;;;;;66.67;35.77;;;2.40;99.90;;;;;;10422217;28;20251;-86
2022/12/06 18:01:13;;;;;;;64.97;33.23;;;2.40;99.90;;;;;;10395569;28;20251;-86
2022/12/06 18:06:36;;;;;;;80.50;35.53;;;2.40;99.90;;;;;;10422202;28;20505;-86
2022/12/06 18:11:57;;;;;;;215.07;72.40;;;2.40;99.90;;;;;;10422199;28;20522;-82
2022/12/06 18:17:18;;;;;;;206.07;73.30;;;2.40;99.90;;;;;;10406009;28;20275;-81
2022/12/06 18:22:39;;;;;;;189.53;66.50;;;2.40;99.90;;;;;;10419952;28;20200;-81
2022/12/06 18:28:01;;;;;;;156.03;60.63;;;2.40;99.90;;;;;;10436464;28;20223;-81
2022/12/06 18:33:22;;;;;;;145.30;58.37;;;2.40;99.90;;;;;;10408502;28;20203;-81
2022/12/06 18:38:47;;;;;;;145.73;57.87;;;2.30;99.90;;;;;;10391752;28;20216;-84
2022/12/06 18:44:09;;;;;;;146.10;59.50;;;2.30;99.90;;;;;;10421341;28;20228;-87
2022/12/06 18:49:30;;;;;;;102.57;47.70;;;2.40;99.90;;;;;;10418344;28;20232;-81
2022/12/06 18:54:52;;;;;;;102.27;43.43;;;2.40;99.90;;;;;;10404190;28;20280;-82
2022/12/06 19:00:14;;;;;;;101.73;44.47;;;2.40;99.90;;;;;;10421115;28;20364;-82
2022/12/06 19:05:36;;;;;;;108.43;51.97;;;2.40;99.90;;;;;;10390730;28;20224;-80
2022/12/06 19:11:18;;;;;;;116.93;55.80;;;2.40;99.90;;;;;;10404948;28;20304;-90
2022/12/06 19:16:47;;;;;;;113.90;53.47;;;2.40;99.90;;;;;;10428075;28;20218;-85
2022/12/06 19:22:08;;;;;;;96.23;46.20;;;2.40;99.90;;;;;;10410423;28;20201;-81
2022/12/06 19:27:29;;;;;;;76.77;39.40;;;2.40;99.90;;;;;;10428951;28;20248;-82
2022/12/06 19:32:51;;;;;;;58.97;30.67;;;2.40;99.90;;;;;;10427125;28;20200;-82
2022/12/06 19:38:12;;;;;;;64.20;32.33;;;2.40;99.90;;;;;;10410919;28;20209;-80
2022/12/06 19:49:18;;;;;;;62.53;36.17;;;2.30;99.90;;;;;;10423544;28;20365;-89
2022/12/06 19:54:40;;;;;;;77.57;42.37;;;2.30;99.90;;;;;;10388832;28;20198;-87
2022/12/06 20:00:03;;;;;;;72.80;41.07;;;2.30;99.90;;;;;;10425935;28;20199;-82
2022/12/06 20:05:32;;;;;;;60.00;32.33;;;2.30;99.90;;;;;;10410813;28;20205;-85
2022/12/06 20:10:53;;;;;;;80.17;34.20;;;2.40;99.90;;;;;;10409288;28;20231;-91
2022/12/06 20:16:14;;;;;;;76.77;34.50;;;2.40;99.90;;;;;;10412993;28;20443;-91
2022/12/06 20:21:36;;;;;;;95.10;39.80;;;2.40;99.90;;;;;;10408322;28;20219;-88
2022/12/06 20:26:57;;;;;;;62.83;32.70;;;2.40;99.90;;;;;;10422131;28;20536;-91
2022/12/06 20:32:18;;;;;;;60.37;29.10;;;2.40;99.90;;;;;;10409496;28;20299;-82
2022/12/06 20:37:40;;;;;;;31.27;19.10;;;2.40;99.90;;;;;;10431233;28;20272;-81
2022/12/06 20:43:01;;;;;;;29.87;16.87;;;2.50;99.90;;;;;;10411122;28;20207;-81
2022/12/06 20:48:22;;;;;;;30.13;16.87;;;2.50;99.90;;;;;;10408239;28;20299;-82
2022/12/06 20:53:46;;;;;;;31.20;17.33;;;2.60;99.90;;;;;;10371587;28;20220;-91
2022/12/06 20:59:09;;;;;;;28.57;16.03;;;2.50;99.90;;;;;;10366819;28;20529;-89
2022/12/06 21:04:31;;;;;;;32.50;18.00;;;2.50;99.90;;;;;;10397051;28;20550;-87
2022/12/06 21:09:52;;;;;;;30.53;17.73;;;2.60;99.90;;;;;;10370094;28;20228;-82
2022/12/06 21:15:13;;;;;;;27.43;16.37;;;2.60;99.90;;;;;;10354486;28;20574;-83
2022/12/06 21:20:38;;;;;;;43.00;21.10;;;2.50;99.90;;;;;;10371448;28;20227;-84
2022/12/06 21:26:04;;;;;;;35.30;19.13;;;2.50;99.90;;;;;;10399844;28;20251;-83
2022/12/06 21:31:30;;;;;;;35.27;17.90;;;2.50;99.90;;;;;;10396633;28;20218;-81
2022/12/06 21:36:52;;;;;;;33.43;17.43;;;2.50;99.90;;;;;;10396195;28;20220;-81
2022/12/06 21:42:19;;;;;;;42.47;19.93;;;2.50;99.90;;;;;;10387394;28;20199;-82
2022/12/06 21:47:40;;;;;;;36.57;18.17;;;2.60;99.90;;;;;;10382412;28;20228;-84
2022/12/06 21:53:02;;;;;;;26.53;15.67;;;2.60;99.90;;;;;;10384596;28;20201;-83
2022/12/06 21:58:23;;;;;;;24.60;13.93;;;2.60;99.90;;;;;;10389379;28;20195;-86
2022/12/06 22:03:49;;;;;;;29.07;15.17;;;2.60;99.90;;;;;;10356674;28;20220;-82
2022/12/06 22:09:10;;;;;;;31.97;15.27;;;2.60;99.90;;;;;;10356792;28;20281;-83
2022/12/06 22:14:31;;;;;;;21.07;11.90;;;2.60;99.90;;;;;;10363234;28;20240;-81
2022/12/06 22:19:55;;;;;;;20.87;12.87;;;2.60;99.90;;;;;;10384218;28;20197;-82
2022/12/06 22:25:16;;;;;;;21.27;11.90;;;2.60;99.90;;;;;;10347597;28;1258784;-82
2022/12/06 22:30:39;;;;;;;19.43;12.07;;;2.60;99.90;;;;;;10409414;28;20223;-81
2022/12/06 22:36:00;;;;;;;19.53;12.43;;;2.50;99.90;;;;;;10414784;28;20185;-82
2022/12/06 22:41:22;;;;;;;21.17;12.53;;;2.50;99.90;;;;;;10429449;28;20197;-83
2022/12/06 22:46:44;;;;;;;20.77;12.47;;;2.50;99.90;;;;;;10426012;23;20424;-81
2022/12/06 22:52:05;;;;;;;30.00;15.87;;;2.50;99.90;;;;;;10395771;28;20251;-80
2022/12/06 22:57:27;;;;;;;21.97;13.13;;;2.50;99.90;;;;;;10407482;28;20215;-79
2022/12/06 23:02:49;;;;;;;22.83;12.77;;;2.50;99.90;;;;;;10396254;28;20212;-77
2022/12/06 23:08:10;;;;;;;61.97;24.60;;;2.50;99.90;;;;;;10374629;28;20205;-80
2022/12/06 23:13:32;;;;;;;67.07;30.30;;;2.60;99.90;;;;;;10386794;28;20208;-86
2022/12/06 23:18:54;;;;;;;58.50;28.40;;;2.50;99.90;;;;;;10403544;28;20264;-89
2022/12/06 23:24:16;;;;;;;59.83;24.77;;;2.50;99.90;;;;;;10387383;28;20194;-80
2022/12/06 23:29:37;;;;;;;63.87;23.90;;;2.60;99.90;;;;;;10386006;28;20231;-79
2022/12/06 23:34:58;;;;;;;35.57;17.40;;;2.60;99.90;;;;;;10386077;28;20200;-79
2022/12/06 23:40:19;;;;;;;22.10;11.63;;;2.50;99.90;;;;;;10386789;28;20220;-78
2022/12/06 23:45:40;;;;;;;18.07;10.53;;;2.60;99.90;;;;;;10392362;28;20506;-78
2022/12/06 23:51:05;;;;;;;16.73;9.37;;;2.60;99.90;;;;;;10385730;28;20642;-82
2022/12/06 23:56:32;;;;;;;17.90;11.53;;;2.60;99.90;;;;;;10385438;28;20240;-88
